sensor_id;sensor_type;location;lat;lon;timestamp;P1;durP1;ratioP1;P2;durP2;ratioP2
83410;SDS011;73340;53.132;8.174;2023-11-18T00:01:43;17.00;;;10.13;;
83410;SDS011;73340;53.132;8.174;2023-11-18T00:06:40;21.40;;;11.32;;
83410;SDS011;73340;53.132;8.174;2023-11-18T00:11:31;15.38;;;9.70;;
83410;SDS011;73340;53.132;8.174;2023-11-18T00:16:21;18.80;;;10.23;;
83410;SDS011;73340;53.132;8.174;2023-11-18T00:21:13;17.38;;;9.93;;
83410;SDS011;73340;53.132;8.174;2023-11-18T00:26:04;19.48;;;11.13;;
83410;SDS011;73340;53.132;8.174;2023-11-18T00:28:31;17.73;;;10.43;;
83410;SDS011;73340;53.132;8.174;2023-11-18T00:33:22;17.30;;;9.80;;
83410;SDS011;73340;53.132;8.174;2023-11-18T00:38:12;14.15;;;8.65;;
83410;SDS011;73340;53.132;8.174;2023-11-18T00:43:03;18.42;;;8.88;;
83410;SDS011;73340;53.132;8.174;2023-11-18T00:47:53;15.88;;;8.50;;
83410;SDS011;73340;53.132;8.174;2023-11-18T00:52:44;13.77;;;8.40;;
83410;SDS011;73340;53.132;8.174;2023-11-18T00:55:13;15.40;;;8.65;;
83410;SDS011;73340;53.132;8.174;2023-11-18T01:00:07;13.05;;;7.63;;
83410;SDS011;73340;53.132;8.174;2023-11-18T01:07:23;11.88;;;7.10;;
83410;SDS011;73340;53.132;8.174;2023-11-18T01:12:14;14.52;;;7.47;;
83410;SDS011;73340;53.132;8.174;2023-11-18T01:14:39;11.13;;;7.10;;
83410;SDS011;73340;53.132;8.174;2023-11-18T01:19:29;11.43;;;7.55;;
83410;SDS011;73340;53.132;8.174;2023-11-18T01:21:55;12.00;;;7.00;;
83410;SDS011;73340;53.132;8.174;2023-11-18T01:26:46;10.85;;;6.95;;
83410;SDS011;73340;53.132;8.174;2023-11-18T01:31:37;14.95;;;7.63;;
83410;SDS011;73340;53.132;8.174;2023-11-18T01:36:29;16.25;;;8.63;;
83410;SDS011;73340;53.132;8.174;2023-11-18T01:38:55;19.90;;;9.10;;
83410;SDS011;73340;53.132;8.174;2023-11-18T01:41:21;16.02;;;8.65;;
83410;SDS011;73340;53.132;8.174;2023-11-18T01:46:12;15.48;;;8.00;;
83410;SDS011;73340;53.132;8.174;2023-11-18T01:51:03;13.60;;;8.05;;
83410;SDS011;73340;53.132;8.174;2023-11-18T01:53:29;17.85;;;8.73;;
83410;SDS011;73340;53.132;8.174;2023-11-18T01:58:20;13.23;;;7.73;;
83410;SDS011;73340;53.132;8.174;2023-11-18T02:00:48;14.52;;;8.88;;
83410;SDS011;73340;53.132;8.174;2023-11-18T02:05:38;12.77;;;8.00;;
83410;SDS011;73340;53.132;8.174;2023-11-18T02:10:35;13.68;;;7.53;;
83410;SDS011;73340;53.132;8.174;2023-11-18T02:13:06;14.68;;;9.60;;
83410;SDS011;73340;53.132;8.174;2023-11-18T02:15:33;16.15;;;8.65;;
83410;SDS011;73340;53.132;8.174;2023-11-18T02:17:59;16.73;;;10.20;;
83410;SDS011;73340;53.132;8.174;2023-11-18T02:20:27;19.65;;;9.90;;
83410;SDS011;73340;53.132;8.174;2023-11-18T02:25:18;17.67;;;9.00;;
83410;SDS011;73340;53.132;8.174;2023-11-18T02:27:44;20.63;;;11.38;;
83410;SDS011;73340;53.132;8.174;2023-11-18T02:30:10;17.60;;;9.68;;
83410;SDS011;73340;53.132;8.174;2023-11-18T02:32:43;18.45;;;10.25;;
83410;SDS011;73340;53.132;8.174;2023-11-18T02:35:29;18.92;;;9.45;;
83410;SDS011;73340;53.132;8.174;2023-11-18T02:37:55;23.90;;;11.18;;
83410;SDS011;73340;53.132;8.174;2023-11-18T02:40:37;18.63;;;9.90;;
83410;SDS011;73340;53.132;8.174;2023-11-18T02:43:04;21.55;;;9.75;;
83410;SDS011;73340;53.132;8.174;2023-11-18T02:45:34;20.30;;;10.23;;
83410;SDS011;73340;53.132;8.174;2023-11-18T02:48:00;21.23;;;10.85;;
83410;SDS011;73340;53.132;8.174;2023-11-18T02:52:52;16.60;;;8.35;;
83410;SDS011;73340;53.132;8.174;2023-11-18T02:57:42;23.33;;;11.47;;
83410;SDS011;73340;53.132;8.174;2023-11-18T03:02:42;19.85;;;9.65;;
83410;SDS011;73340;53.132;8.174;2023-11-18T03:07:32;25.15;;;10.80;;
83410;SDS011;73340;53.132;8.174;2023-11-18T03:12:25;24.42;;;11.20;;
83410;SDS011;73340;53.132;8.174;2023-11-18T03:14:52;27.92;;;11.98;;
83410;SDS011;73340;53.132;8.174;2023-11-18T03:17:18;33.78;;;13.07;;
83410;SDS011;73340;53.132;8.174;2023-11-18T03:19:45;24.55;;;12.68;;
83410;SDS011;73340;53.132;8.174;2023-11-18T03:24:35;31.00;;;12.70;;
83410;SDS011;73340;53.132;8.174;2023-11-18T03:29:25;36.37;;;15.40;;
83410;SDS011;73340;53.132;8.174;2023-11-18T03:31:50;38.20;;;16.30;;
83410;SDS011;73340;53.132;8.174;2023-11-18T03:34:16;48.63;;;18.33;;
83410;SDS011;73340;53.132;8.174;2023-11-18T03:36:41;61.22;;;19.98;;
83410;SDS011;73340;53.132;8.174;2023-11-18T03:39:07;41.33;;;17.10;;
83410;SDS011;73340;53.132;8.174;2023-11-18T03:43:57;43.28;;;16.92;;
83410;SDS011;73340;53.132;8.174;2023-11-18T03:46:22;45.97;;;17.07;;
83410;SDS011;73340;53.132;8.174;2023-11-18T03:48:47;43.15;;;17.67;;
83410;SDS011;73340;53.132;8.174;2023-11-18T03:53:38;49.28;;;16.35;;
83410;SDS011;73340;53.132;8.174;2023-11-18T03:56:03;40.77;;;17.37;;
83410;SDS011;73340;53.132;8.174;2023-11-18T03:58:28;47.63;;;18.42;;
83410;SDS011;73340;53.132;8.174;2023-11-18T04:03:18;50.73;;;19.10;;
83410;SDS011;73340;53.132;8.174;2023-11-18T04:05:44;50.57;;;18.63;;
83410;SDS011;73340;53.132;8.174;2023-11-18T04:08:09;44.57;;;18.07;;
83410;SDS011;73340;53.132;8.174;2023-11-18T04:10:34;50.53;;;19.48;;
83410;SDS011;73340;53.132;8.174;2023-11-18T04:12:59;43.37;;;17.50;;
83410;SDS011;73340;53.132;8.174;2023-11-18T04:15:25;43.33;;;19.53;;
83410;SDS011;73340;53.132;8.174;2023-11-18T04:17:51;42.58;;;19.23;;
83410;SDS011;73340;53.132;8.174;2023-11-18T04:22:43;35.72;;;15.55;;
83410;SDS011;73340;53.132;8.174;2023-11-18T04:27:33;54.10;;;17.60;;
83410;SDS011;73340;53.132;8.174;2023-11-18T04:29:58;53.97;;;19.67;;
83410;SDS011;73340;53.132;8.174;2023-11-18T04:34:49;45.38;;;18.00;;
83410;SDS011;73340;53.132;8.174;2023-11-18T04:37:16;55.70;;;20.83;;
83410;SDS011;73340;53.132;8.174;2023-11-18T04:39:41;57.85;;;21.88;;
83410;SDS011;73340;53.132;8.174;2023-11-18T04:46:57;45.22;;;18.40;;
83410;SDS011;73340;53.132;8.174;2023-11-18T04:49:22;39.73;;;18.37;;
83410;SDS011;73340;53.132;8.174;2023-11-18T04:54:12;53.08;;;19.13;;
83410;SDS011;73340;53.132;8.174;2023-11-18T04:56:38;56.75;;;21.05;;
83410;SDS011;73340;53.132;8.174;2023-11-18T05:01:30;58.38;;;21.55;;
83410;SDS011;73340;53.132;8.174;2023-11-18T05:03:55;56.83;;;20.45;;
83410;SDS011;73340;53.132;8.174;2023-11-18T05:06:20;64.30;;;22.73;;
83410;SDS011;73340;53.132;8.174;2023-11-18T05:11:10;80.88;;;22.45;;
83410;SDS011;73340;53.132;8.174;2023-11-18T05:13:37;72.82;;;23.48;;
83410;SDS011;73340;53.132;8.174;2023-11-18T05:16:05;50.33;;;21.08;;
83410;SDS011;73340;53.132;8.174;2023-11-18T05:18:30;51.10;;;21.15;;
83410;SDS011;73340;53.132;8.174;2023-11-18T05:21:00;51.50;;;21.83;;
83410;SDS011;73340;53.132;8.174;2023-11-18T05:25:50;47.20;;;17.25;;
83410;SDS011;73340;53.132;8.174;2023-11-18T05:28:16;50.00;;;20.23;;
83410;SDS011;73340;53.132;8.174;2023-11-18T05:33:06;50.97;;;17.70;;
83410;SDS011;73340;53.132;8.174;2023-11-18T05:37:58;65.45;;;19.67;;
83410;SDS011;73340;53.132;8.174;2023-11-18T05:40:23;41.75;;;18.92;;
83410;SDS011;73340;53.132;8.174;2023-11-18T05:42:50;45.60;;;18.17;;
83410;SDS011;73340;53.132;8.174;2023-11-18T05:45:16;40.70;;;17.30;;
83410;SDS011;73340;53.132;8.174;2023-11-18T05:47:57;40.83;;;17.30;;
83410;SDS011;73340;53.132;8.174;2023-11-18T05:50:22;62.08;;;20.65;;
83410;SDS011;73340;53.132;8.174;2023-11-18T05:52:49;51.08;;;20.58;;
83410;SDS011;73340;53.132;8.174;2023-11-18T05:55:15;52.78;;;20.00;;
83410;SDS011;73340;53.132;8.174;2023-11-18T05:57:40;52.20;;;21.30;;
83410;SDS011;73340;53.132;8.174;2023-11-18T06:00:05;47.27;;;18.17;;
83410;SDS011;73340;53.132;8.174;2023-11-18T06:02:31;44.17;;;19.85;;
83410;SDS011;73340;53.132;8.174;2023-11-18T06:04:56;73.47;;;22.98;;
83410;SDS011;73340;53.132;8.174;2023-11-18T06:07:22;65.50;;;24.80;;
83410;SDS011;73340;53.132;8.174;2023-11-18T06:12:13;57.03;;;21.58;;
83410;SDS011;73340;53.132;8.174;2023-11-18T06:14:38;56.47;;;22.37;;
83410;SDS011;73340;53.132;8.174;2023-11-18T06:17:03;63.40;;;19.87;;
83410;SDS011;73340;53.132;8.174;2023-11-18T06:19:28;45.83;;;19.47;;
83410;SDS011;73340;53.132;8.174;2023-11-18T06:21:53;61.17;;;20.30;;
83410;SDS011;73340;53.132;8.174;2023-11-18T06:24:19;52.10;;;21.90;;
83410;SDS011;73340;53.132;8.174;2023-11-18T06:26:46;66.45;;;21.08;;
83410;SDS011;73340;53.132;8.174;2023-11-18T06:29:11;63.47;;;22.23;;
83410;SDS011;73340;53.132;8.174;2023-11-18T06:31:37;55.30;;;20.53;;
83410;SDS011;73340;53.132;8.174;2023-11-18T06:34:02;52.97;;;21.33;;
83410;SDS011;73340;53.132;8.174;2023-11-18T06:36:28;55.08;;;21.35;;
83410;SDS011;73340;53.132;8.174;2023-11-18T06:38:56;54.22;;;21.85;;
83410;SDS011;73340;53.132;8.174;2023-11-18T06:41:21;53.43;;;21.57;;
83410;SDS011;73340;53.132;8.174;2023-11-18T06:43:50;69.72;;;24.55;;
83410;SDS011;73340;53.132;8.174;2023-11-18T06:46:26;54.95;;;22.08;;
83410;SDS011;73340;53.132;8.174;2023-11-18T06:48:54;64.57;;;23.13;;
83410;SDS011;73340;53.132;8.174;2023-11-18T06:51:22;72.15;;;24.90;;
83410;SDS011;73340;53.132;8.174;2023-11-18T06:53:49;62.90;;;23.02;;
83410;SDS011;73340;53.132;8.174;2023-11-18T06:56:15;66.18;;;23.75;;
83410;SDS011;73340;53.132;8.174;2023-11-18T06:58:41;71.10;;;24.13;;
83410;SDS011;73340;53.132;8.174;2023-11-18T07:01:07;64.53;;;25.17;;
83410;SDS011;73340;53.132;8.174;2023-11-18T07:03:33;68.27;;;25.70;;
83410;SDS011;73340;53.132;8.174;2023-11-18T07:05:58;66.03;;;24.50;;
83410;SDS011;73340;53.132;8.174;2023-11-18T07:08:23;57.40;;;21.40;;
83410;SDS011;73340;53.132;8.174;2023-11-18T07:10:49;56.47;;;21.65;;
83410;SDS011;73340;53.132;8.174;2023-11-18T07:13:14;63.17;;;22.25;;
83410;SDS011;73340;53.132;8.174;2023-11-18T07:15:41;61.05;;;24.05;;
83410;SDS011;73340;53.132;8.174;2023-11-18T07:18:06;58.83;;;21.87;;
83410;SDS011;73340;53.132;8.174;2023-11-18T07:20:33;53.45;;;20.92;;
83410;SDS011;73340;53.132;8.174;2023-11-18T07:22:59;58.57;;;22.50;;
83410;SDS011;73340;53.132;8.174;2023-11-18T07:25:24;58.53;;;21.88;;
83410;SDS011;73340;53.132;8.174;2023-11-18T07:30:15;48.63;;;19.40;;
83410;SDS011;73340;53.132;8.174;2023-11-18T07:32:40;58.20;;;23.03;;
83410;SDS011;73340;53.132;8.174;2023-11-18T07:37:33;56.22;;;20.75;;
83410;SDS011;73340;53.132;8.174;2023-11-18T07:39:59;54.77;;;20.83;;
83410;SDS011;73340;53.132;8.174;2023-11-18T07:42:25;54.85;;;22.08;;
83410;SDS011;73340;53.132;8.174;2023-11-18T07:44:51;56.28;;;20.65;;
83410;SDS011;73340;53.132;8.174;2023-11-18T07:49:41;47.78;;;18.95;;
83410;SDS011;73340;53.132;8.174;2023-11-18T07:54:32;52.67;;;21.07;;
83410;SDS011;73340;53.132;8.174;2023-11-18T07:59:23;47.65;;;18.63;;
83410;SDS011;73340;53.132;8.174;2023-11-18T08:04:15;49.85;;;20.00;;
83410;SDS011;73340;53.132;8.174;2023-11-18T08:06:40;47.97;;;20.27;;
83410;SDS011;73340;53.132;8.174;2023-11-18T08:11:47;54.15;;;21.80;;
83410;SDS011;73340;53.132;8.174;2023-11-18T08:14:12;58.15;;;22.83;;
83410;SDS011;73340;53.132;8.174;2023-11-18T08:19:03;56.40;;;21.02;;
83410;SDS011;73340;53.132;8.174;2023-11-18T08:21:28;62.33;;;23.47;;
83410;SDS011;73340;53.132;8.174;2023-11-18T08:26:18;52.75;;;20.80;;
83410;SDS011;73340;53.132;8.174;2023-11-18T08:28:44;51.35;;;20.38;;
83410;SDS011;73340;53.132;8.174;2023-11-18T08:31:10;45.78;;;19.73;;
83410;SDS011;73340;53.132;8.174;2023-11-18T08:33:40;51.00;;;21.15;;
83410;SDS011;73340;53.132;8.174;2023-11-18T08:36:05;55.67;;;20.07;;
83410;SDS011;73340;53.132;8.174;2023-11-18T08:38:32;51.55;;;19.55;;
83410;SDS011;73340;53.132;8.174;2023-11-18T08:40:58;49.73;;;20.93;;
83410;SDS011;73340;53.132;8.174;2023-11-18T08:43:23;56.47;;;21.58;;
83410;SDS011;73340;53.132;8.174;2023-11-18T08:45:48;49.60;;;20.00;;
83410;SDS011;73340;53.132;8.174;2023-11-18T08:48:15;54.50;;;21.45;;
83410;SDS011;73340;53.132;8.174;2023-11-18T08:50:43;45.78;;;18.75;;
83410;SDS011;73340;53.132;8.174;2023-11-18T08:55:34;42.15;;;17.58;;
83410;SDS011;73340;53.132;8.174;2023-11-18T08:58:06;42.35;;;19.25;;
83410;SDS011;73340;53.132;8.174;2023-11-18T09:00:56;42.40;;;17.60;;
83410;SDS011;73340;53.132;8.174;2023-11-18T09:03:30;40.05;;;17.02;;
83410;SDS011;73340;53.132;8.174;2023-11-18T09:06:04;39.78;;;15.95;;
83410;SDS011;73340;53.132;8.174;2023-11-18T09:08:36;36.92;;;16.05;;
83410;SDS011;73340;53.132;8.174;2023-11-18T09:11:06;43.35;;;17.65;;
83410;SDS011;73340;53.132;8.174;2023-11-18T09:13:32;37.40;;;16.83;;
83410;SDS011;73340;53.132;8.174;2023-11-18T09:15:59;40.40;;;16.83;;
83410;SDS011;73340;53.132;8.174;2023-11-18T09:20:50;36.88;;;15.18;;
83410;SDS011;73340;53.132;8.174;2023-11-18T09:23:17;40.10;;;15.98;;
83410;SDS011;73340;53.132;8.174;2023-11-18T09:25:44;41.58;;;17.20;;
83410;SDS011;73340;53.132;8.174;2023-11-18T09:28:11;39.90;;;16.65;;
83410;SDS011;73340;53.132;8.174;2023-11-18T09:30:39;38.42;;;15.77;;
83410;SDS011;73340;53.132;8.174;2023-11-18T09:33:14;38.88;;;16.60;;
83410;SDS011;73340;53.132;8.174;2023-11-18T09:35:42;40.50;;;15.77;;
83410;SDS011;73340;53.132;8.174;2023-11-18T09:40:33;36.70;;;15.23;;
83410;SDS011;73340;53.132;8.174;2023-11-18T09:43:02;40.47;;;15.60;;
83410;SDS011;73340;53.132;8.174;2023-11-18T09:45:34;36.72;;;16.00;;
83410;SDS011;73340;53.132;8.174;2023-11-18T09:50:26;37.10;;;15.82;;
83410;SDS011;73340;53.132;8.174;2023-11-18T09:52:54;42.33;;;16.52;;
83410;SDS011;73340;53.132;8.174;2023-11-18T09:57:46;35.95;;;15.10;;
83410;SDS011;73340;53.132;8.174;2023-11-18T10:00:13;36.20;;;16.05;;
83410;SDS011;73340;53.132;8.174;2023-11-18T10:02:45;41.70;;;16.38;;
83410;SDS011;73340;53.132;8.174;2023-11-18T10:05:11;40.88;;;17.60;;
83410;SDS011;73340;53.132;8.174;2023-11-18T10:07:39;41.33;;;17.05;;
83410;SDS011;73340;53.132;8.174;2023-11-18T10:10:06;37.17;;;15.02;;
83410;SDS011;73340;53.132;8.174;2023-11-18T10:12:39;33.40;;;15.43;;
83410;SDS011;73340;53.132;8.174;2023-11-18T10:17:36;34.15;;;15.13;;
83410;SDS011;73340;53.132;8.174;2023-11-18T10:22:37;36.78;;;14.75;;
83410;SDS011;73340;53.132;8.174;2023-11-18T10:27:31;37.67;;;15.45;;
83410;SDS011;73340;53.132;8.174;2023-11-18T10:32:21;36.05;;;15.05;;
83410;SDS011;73340;53.132;8.174;2023-11-18T10:37:13;32.35;;;13.85;;
83410;SDS011;73340;53.132;8.174;2023-11-18T10:42:03;35.17;;;13.57;;
83410;SDS011;73340;53.132;8.174;2023-11-18T10:46:57;36.72;;;13.93;;
83410;SDS011;73340;53.132;8.174;2023-11-18T10:49:24;34.70;;;14.98;;
83410;SDS011;73340;53.132;8.174;2023-11-18T10:54:15;34.00;;;13.68;;
83410;SDS011;73340;53.132;8.174;2023-11-18T10:56:51;32.05;;;13.82;;
83410;SDS011;73340;53.132;8.174;2023-11-18T10:59:21;32.05;;;13.75;;
83410;SDS011;73340;53.132;8.174;2023-11-18T11:01:47;37.63;;;14.43;;
83410;SDS011;73340;53.132;8.174;2023-11-18T11:04:14;33.08;;;13.95;;
83410;SDS011;73340;53.132;8.174;2023-11-18T11:06:45;33.08;;;13.23;;
83410;SDS011;73340;53.132;8.174;2023-11-18T11:09:18;38.22;;;14.07;;
83410;SDS011;73340;53.132;8.174;2023-11-18T11:14:08;36.58;;;14.40;;
83410;SDS011;73340;53.132;8.174;2023-11-18T11:19:00;29.30;;;12.50;;
83410;SDS011;73340;53.132;8.174;2023-11-18T11:21:33;32.75;;;14.45;;
83410;SDS011;73340;53.132;8.174;2023-11-18T11:24:03;32.25;;;13.95;;
83410;SDS011;73340;53.132;8.174;2023-11-18T11:31:46;34.08;;;14.20;;
83410;SDS011;73340;53.132;8.174;2023-11-18T11:34:19;35.95;;;15.20;;
83410;SDS011;73340;53.132;8.174;2023-11-18T11:36:48;36.13;;;14.38;;
83410;SDS011;73340;53.132;8.174;2023-11-18T11:39:16;34.35;;;13.05;;
83410;SDS011;73340;53.132;8.174;2023-11-18T11:41:45;39.88;;;13.73;;
83410;SDS011;73340;53.132;8.174;2023-11-18T11:44:12;31.80;;;14.18;;
83410;SDS011;73340;53.132;8.174;2023-11-18T11:46:38;34.03;;;12.60;;
83410;SDS011;73340;53.132;8.174;2023-11-18T11:49:06;35.38;;;13.68;;
83410;SDS011;73340;53.132;8.174;2023-11-18T11:54:21;33.38;;;14.05;;
83410;SDS011;73340;53.132;8.174;2023-11-18T11:56:48;37.65;;;14.73;;
83410;SDS011;73340;53.132;8.174;2023-11-18T12:02:18;34.67;;;13.52;;
83410;SDS011;73340;53.132;8.174;2023-11-18T12:04:49;35.00;;;13.88;;
83410;SDS011;73340;53.132;8.174;2023-11-18T12:07:17;38.30;;;16.13;;
83410;SDS011;73340;53.132;8.174;2023-11-18T12:09:44;38.65;;;15.30;;
83410;SDS011;73340;53.132;8.174;2023-11-18T12:12:17;38.45;;;15.18;;
83410;SDS011;73340;53.132;8.174;2023-11-18T12:14:57;40.03;;;15.73;;
83410;SDS011;73340;53.132;8.174;2023-11-18T12:17:23;41.58;;;15.27;;
83410;SDS011;73340;53.132;8.174;2023-11-18T12:19:49;40.50;;;15.43;;
83410;SDS011;73340;53.132;8.174;2023-11-18T12:22:19;44.63;;;15.50;;
83410;SDS011;73340;53.132;8.174;2023-11-18T12:25:28;41.85;;;16.42;;
83410;SDS011;73340;53.132;8.174;2023-11-18T12:35:26;38.47;;;15.65;;
83410;SDS011;73340;53.132;8.174;2023-11-18T12:43:11;40.50;;;16.20;;
83410;SDS011;73340;53.132;8.174;2023-11-18T12:45:43;44.60;;;17.83;;
83410;SDS011;73340;53.132;8.174;2023-11-18T12:48:09;39.25;;;15.93;;
83410;SDS011;73340;53.132;8.174;2023-11-18T12:50:40;45.33;;;16.98;;
83410;SDS011;73340;53.132;8.174;2023-11-18T12:53:06;46.40;;;16.05;;
83410;SDS011;73340;53.132;8.174;2023-11-18T12:55:32;40.83;;;17.20;;
83410;SDS011;73340;53.132;8.174;2023-11-18T13:02:54;43.28;;;15.70;;
83410;SDS011;73340;53.132;8.174;2023-11-18T13:05:20;44.63;;;17.08;;
83410;SDS011;73340;53.132;8.174;2023-11-18T13:07:45;36.20;;;14.88;;
83410;SDS011;73340;53.132;8.174;2023-11-18T13:10:12;40.58;;;15.27;;
83410;SDS011;73340;53.132;8.174;2023-11-18T13:12:40;41.80;;;16.38;;
83410;SDS011;73340;53.132;8.174;2023-11-18T13:15:07;43.17;;;16.23;;
83410;SDS011;73340;53.132;8.174;2023-11-18T13:17:33;41.13;;;16.48;;
83410;SDS011;73340;53.132;8.174;2023-11-18T13:20:05;41.85;;;16.13;;
83410;SDS011;73340;53.132;8.174;2023-11-18T13:22:37;40.95;;;15.93;;
83410;SDS011;73340;53.132;8.174;2023-11-18T13:25:04;37.20;;;15.98;;
83410;SDS011;73340;53.132;8.174;2023-11-18T13:27:30;43.45;;;16.15;;
83410;SDS011;73340;53.132;8.174;2023-11-18T13:29:57;43.97;;;16.77;;
83410;SDS011;73340;53.132;8.174;2023-11-18T13:32:22;43.40;;;16.83;;
83410;SDS011;73340;53.132;8.174;2023-11-18T13:34:48;39.30;;;14.63;;
83410;SDS011;73340;53.132;8.174;2023-11-18T13:37:13;38.90;;;15.40;;
83410;SDS011;73340;53.132;8.174;2023-11-18T13:39:41;39.88;;;15.13;;
83410;SDS011;73340;53.132;8.174;2023-11-18T13:42:20;37.25;;;15.00;;
83410;SDS011;73340;53.132;8.174;2023-11-18T13:44:46;37.60;;;15.25;;
83410;SDS011;73340;53.132;8.174;2023-11-18T13:47:13;56.30;;;17.73;;
83410;SDS011;73340;53.132;8.174;2023-11-18T13:49:38;40.55;;;14.75;;
83410;SDS011;73340;53.132;8.174;2023-11-18T13:52:07;45.85;;;15.43;;
83410;SDS011;73340;53.132;8.174;2023-11-18T13:54:37;36.28;;;15.40;;
83410;SDS011;73340;53.132;8.174;2023-11-18T13:57:03;38.75;;;15.90;;
83410;SDS011;73340;53.132;8.174;2023-11-18T13:59:29;38.35;;;14.90;;
83410;SDS011;73340;53.132;8.174;2023-11-18T14:01:54;35.00;;;14.52;;
83410;SDS011;73340;53.132;8.174;2023-11-18T14:06:45;36.13;;;15.00;;
83410;SDS011;73340;53.132;8.174;2023-11-18T14:09:17;42.90;;;15.40;;
83410;SDS011;73340;53.132;8.174;2023-11-18T14:11:42;35.63;;;14.47;;
83410;SDS011;73340;53.132;8.174;2023-11-18T14:16:33;38.53;;;14.60;;
83410;SDS011;73340;53.132;8.174;2023-11-18T14:18:59;35.85;;;14.57;;
83410;SDS011;73340;53.132;8.174;2023-11-18T14:23:50;36.85;;;14.68;;
83410;SDS011;73340;53.132;8.174;2023-11-18T14:28:40;32.80;;;12.80;;
83410;SDS011;73340;53.132;8.174;2023-11-18T14:31:07;36.65;;;15.38;;
83410;SDS011;73340;53.132;8.174;2023-11-18T14:33:34;31.63;;;14.73;;
83410;SDS011;73340;53.132;8.174;2023-11-18T14:36:00;35.20;;;14.57;;
83410;SDS011;73340;53.132;8.174;2023-11-18T14:38:30;35.53;;;14.45;;
83410;SDS011;73340;53.132;8.174;2023-11-18T14:40:55;42.33;;;15.00;;
83410;SDS011;73340;53.132;8.174;2023-11-18T14:45:46;30.77;;;13.40;;
83410;SDS011;73340;53.132;8.174;2023-11-18T14:48:11;34.87;;;13.90;;
83410;SDS011;73340;53.132;8.174;2023-11-18T14:50:38;35.90;;;14.30;;
83410;SDS011;73340;53.132;8.174;2023-11-18T14:53:03;34.33;;;15.73;;
83410;SDS011;73340;53.132;8.174;2023-11-18T14:55:29;34.25;;;13.82;;
83410;SDS011;73340;53.132;8.174;2023-11-18T14:57:54;42.22;;;15.85;;
83410;SDS011;73340;53.132;8.174;2023-11-18T15:00:22;34.50;;;13.65;;
83410;SDS011;73340;53.132;8.174;2023-11-18T15:02:50;35.92;;;14.07;;
83410;SDS011;73340;53.132;8.174;2023-11-18T15:05:15;38.97;;;14.70;;
83410;SDS011;73340;53.132;8.174;2023-11-18T15:07:53;37.30;;;14.43;;
83410;SDS011;73340;53.132;8.174;2023-11-18T15:10:18;37.15;;;14.18;;
83410;SDS011;73340;53.132;8.174;2023-11-18T15:12:50;43.75;;;16.75;;
83410;SDS011;73340;53.132;8.174;2023-11-18T15:15:23;37.58;;;14.90;;
83410;SDS011;73340;53.132;8.174;2023-11-18T15:17:56;35.08;;;14.43;;
83410;SDS011;73340;53.132;8.174;2023-11-18T15:20:22;33.20;;;14.10;;
83410;SDS011;73340;53.132;8.174;2023-11-18T15:22:48;34.55;;;13.75;;
83410;SDS011;73340;53.132;8.174;2023-11-18T15:25:13;37.87;;;14.47;;
83410;SDS011;73340;53.132;8.174;2023-11-18T15:27:39;33.83;;;13.77;;
83410;SDS011;73340;53.132;8.174;2023-11-18T15:30:06;48.33;;;17.60;;
83410;SDS011;73340;53.132;8.174;2023-11-18T15:32:31;36.95;;;15.40;;
83410;SDS011;73340;53.132;8.174;2023-11-18T15:34:57;33.87;;;13.27;;
83410;SDS011;73340;53.132;8.174;2023-11-18T15:37:23;31.40;;;13.48;;
83410;SDS011;73340;53.132;8.174;2023-11-18T15:42:13;28.55;;;12.35;;
83410;SDS011;73340;53.132;8.174;2023-11-18T15:44:38;37.35;;;13.18;;
83410;SDS011;73340;53.132;8.174;2023-11-18T15:47:04;34.00;;;14.18;;
83410;SDS011;73340;53.132;8.174;2023-11-18T15:49:29;32.83;;;13.15;;
83410;SDS011;73340;53.132;8.174;2023-11-18T15:51:55;31.90;;;13.67;;
83410;SDS011;73340;53.132;8.174;2023-11-18T15:54:20;32.27;;;13.00;;
83410;SDS011;73340;53.132;8.174;2023-11-18T15:59:10;36.03;;;13.80;;
83410;SDS011;73340;53.132;8.174;2023-11-18T16:01:36;29.17;;;12.45;;
83410;SDS011;73340;53.132;8.174;2023-11-18T16:04:01;33.47;;;13.47;;
83410;SDS011;73340;53.132;8.174;2023-11-18T16:06:27;31.40;;;13.32;;
83410;SDS011;73340;53.132;8.174;2023-11-18T16:08:52;28.67;;;13.07;;
83410;SDS011;73340;53.132;8.174;2023-11-18T16:11:17;32.80;;;13.07;;
83410;SDS011;73340;53.132;8.174;2023-11-18T16:13:43;28.60;;;13.07;;
83410;SDS011;73340;53.132;8.174;2023-11-18T16:18:33;21.38;;;11.18;;
83410;SDS011;73340;53.132;8.174;2023-11-18T16:20:59;24.83;;;11.90;;
83410;SDS011;73340;53.132;8.174;2023-11-18T16:23:28;28.77;;;12.68;;
83410;SDS011;73340;53.132;8.174;2023-11-18T16:25:59;28.63;;;12.18;;
83410;SDS011;73340;53.132;8.174;2023-11-18T16:28:24;24.73;;;11.47;;
83410;SDS011;73340;53.132;8.174;2023-11-18T16:30:50;28.70;;;12.97;;
83410;SDS011;73340;53.132;8.174;2023-11-18T16:35:40;27.13;;;12.18;;
83410;SDS011;73340;53.132;8.174;2023-11-18T16:38:06;26.60;;;11.47;;
83410;SDS011;73340;53.132;8.174;2023-11-18T16:40:32;26.05;;;11.05;;
83410;SDS011;73340;53.132;8.174;2023-11-18T16:45:24;25.05;;;11.30;;
83410;SDS011;73340;53.132;8.174;2023-11-18T16:50:18;23.15;;;10.90;;
83410;SDS011;73340;53.132;8.174;2023-11-18T16:52:43;22.00;;;11.77;;
83410;SDS011;73340;53.132;8.174;2023-11-18T16:55:09;25.13;;;11.75;;
83410;SDS011;73340;53.132;8.174;2023-11-18T16:57:34;20.88;;;10.23;;
83410;SDS011;73340;53.132;8.174;2023-11-18T17:00:18;24.60;;;10.57;;
83410;SDS011;73340;53.132;8.174;2023-11-18T17:02:50;26.40;;;10.65;;
83410;SDS011;73340;53.132;8.174;2023-11-18T17:05:22;22.48;;;10.70;;
83410;SDS011;73340;53.132;8.174;2023-11-18T17:10:15;19.77;;;9.43;;
83410;SDS011;73340;53.132;8.174;2023-11-18T17:15:06;19.15;;;8.70;;
83410;SDS011;73340;53.132;8.174;2023-11-18T17:17:32;21.50;;;8.93;;
83410;SDS011;73340;53.132;8.174;2023-11-18T17:22:22;19.27;;;7.57;;
83410;SDS011;73340;53.132;8.174;2023-11-18T17:27:13;18.73;;;7.97;;
83410;SDS011;73340;53.132;8.174;2023-11-18T17:32:04;17.43;;;7.10;;
83410;SDS011;73340;53.132;8.174;2023-11-18T17:34:29;18.23;;;8.00;;
83410;SDS011;73340;53.132;8.174;2023-11-18T17:39:19;12.82;;;7.53;;
83410;SDS011;73340;53.132;8.174;2023-11-18T17:44:10;18.83;;;7.20;;
83410;SDS011;73340;53.132;8.174;2023-11-18T17:49:00;15.10;;;6.55;;
83410;SDS011;73340;53.132;8.174;2023-11-18T17:53:54;11.95;;;5.65;;
83410;SDS011;73340;53.132;8.174;2023-11-18T17:58:44;14.45;;;6.07;;
83410;SDS011;73340;53.132;8.174;2023-11-18T18:03:35;9.40;;;5.63;;
83410;SDS011;73340;53.132;8.174;2023-11-18T18:06:00;9.93;;;4.83;;
83410;SDS011;73340;53.132;8.174;2023-11-18T18:08:25;9.50;;;5.10;;
83410;SDS011;73340;53.132;8.174;2023-11-18T18:13:16;9.53;;;4.73;;
83410;SDS011;73340;53.132;8.174;2023-11-18T18:15:41;8.73;;;4.70;;
83410;SDS011;73340;53.132;8.174;2023-11-18T18:20:33;10.43;;;4.50;;
83410;SDS011;73340;53.132;8.174;2023-11-18T18:25:23;11.45;;;5.18;;
83410;SDS011;73340;53.132;8.174;2023-11-18T18:30:15;7.57;;;4.00;;
83410;SDS011;73340;53.132;8.174;2023-11-18T18:32:41;10.27;;;4.40;;
83410;SDS011;73340;53.132;8.174;2023-11-18T18:37:31;5.90;;;3.20;;
83410;SDS011;73340;53.132;8.174;2023-11-18T18:42:22;7.20;;;3.47;;
83410;SDS011;73340;53.132;8.174;2023-11-18T18:47:12;8.65;;;4.32;;
83410;SDS011;73340;53.132;8.174;2023-11-18T18:49:38;6.70;;;3.85;;
83410;SDS011;73340;53.132;8.174;2023-11-18T18:52:03;8.43;;;4.82;;